sensor_id;sensor_type;location;lat;lon;timestamp;P1;durP1;ratioP1;P2;durP2;ratioP2
77214;SDS011;66210;53.282;9.864;2023-07-28T00:00:37;1.50;;;1.27;;
77214;SDS011;66210;53.282;9.864;2023-07-28T00:03:04;2.10;;;1.88;;
77214;SDS011;66210;53.282;9.864;2023-07-28T00:05:31;2.13;;;1.67;;
77214;SDS011;66210;53.282;9.864;2023-07-28T00:07:57;1.92;;;1.50;;
77214;SDS011;66210;53.282;9.864;2023-07-28T00:10:24;2.13;;;1.40;;
77214;SDS011;66210;53.282;9.864;2023-07-28T00:12:51;1.77;;;1.48;;
77214;SDS011;66210;53.282;9.864;2023-07-28T00:15:17;3.13;;;1.75;;
77214;SDS011;66210;53.282;9.864;2023-07-28T00:17:44;1.58;;;1.48;;
77214;SDS011;66210;53.282;9.864;2023-07-28T00:20:11;3.28;;;1.98;;
77214;SDS011;66210;53.282;9.864;2023-07-28T00:22:38;2.60;;;1.80;;
77214;SDS011;66210;53.282;9.864;2023-07-28T00:25:04;3.40;;;2.00;;
77214;SDS011;66210;53.282;9.864;2023-07-28T00:27:31;2.05;;;1.73;;
77214;SDS011;66210;53.282;9.864;2023-07-28T00:29:58;1.85;;;1.70;;
77214;SDS011;66210;53.282;9.864;2023-07-28T00:32:24;2.22;;;1.70;;
77214;SDS011;66210;53.282;9.864;2023-07-28T00:34:51;2.72;;;1.60;;
77214;SDS011;66210;53.282;9.864;2023-07-28T00:37:18;3.08;;;1.35;;
77214;SDS011;66210;53.282;9.864;2023-07-28T00:39:45;1.80;;;1.50;;
77214;SDS011;66210;53.282;9.864;2023-07-28T00:42:12;1.85;;;1.50;;
77214;SDS011;66210;53.282;9.864;2023-07-28T00:44:38;1.70;;;1.52;;
77214;SDS011;66210;53.282;9.864;2023-07-28T00:47:05;1.58;;;1.40;;
77214;SDS011;66210;53.282;9.864;2023-07-28T00:49:32;4.75;;;1.73;;
77214;SDS011;66210;53.282;9.864;2023-07-28T00:52:00;1.83;;;1.48;;
77214;SDS011;66210;53.282;9.864;2023-07-28T00:54:27;1.30;;;1.20;;
77214;SDS011;66210;53.282;9.864;2023-07-28T00:56:54;1.52;;;1.40;;
77214;SDS011;66210;53.282;9.864;2023-07-28T00:59:22;1.35;;;1.25;;
77214;SDS011;66210;53.282;9.864;2023-07-28T01:01:49;1.52;;;1.30;;
77214;SDS011;66210;53.282;9.864;2023-07-28T01:04:15;1.48;;;1.30;;
77214;SDS011;66210;53.282;9.864;2023-07-28T01:07:03;1.52;;;1.42;;
77214;SDS011;66210;53.282;9.864;2023-07-28T01:12:29;1.17;;;1.08;;
77214;SDS011;66210;53.282;9.864;2023-07-28T01:14:56;1.33;;;1.23;;
77214;SDS011;66210;53.282;9.864;2023-07-28T01:17:23;1.52;;;1.42;;
77214;SDS011;66210;53.282;9.864;2023-07-28T01:19:54;1.60;;;1.50;;
77214;SDS011;66210;53.282;9.864;2023-07-28T01:28:11;2.15;;;1.40;;
77214;SDS011;66210;53.282;9.864;2023-07-28T01:30:39;2.47;;;1.40;;
77214;SDS011;66210;53.282;9.864;2023-07-28T01:33:07;1.63;;;1.42;;
77214;SDS011;66210;53.282;9.864;2023-07-28T01:35:38;2.90;;;1.50;;
77214;SDS011;66210;53.282;9.864;2023-07-28T01:38:05;2.10;;;1.33;;
77214;SDS011;66210;53.282;9.864;2023-07-28T01:40:32;1.30;;;1.13;;
77214;SDS011;66210;53.282;9.864;2023-07-28T01:42:58;1.50;;;1.40;;
77214;SDS011;66210;53.282;9.864;2023-07-28T01:45:25;1.42;;;1.13;;
77214;SDS011;66210;53.282;9.864;2023-07-28T01:47:52;3.53;;;1.30;;
77214;SDS011;66210;53.282;9.864;2023-07-28T01:50:19;1.73;;;1.30;;
77214;SDS011;66210;53.282;9.864;2023-07-28T01:52:46;1.90;;;1.30;;
77214;SDS011;66210;53.282;9.864;2023-07-28T01:55:13;2.58;;;1.40;;
77214;SDS011;66210;53.282;9.864;2023-07-28T01:57:39;1.20;;;1.10;;
77214;SDS011;66210;53.282;9.864;2023-07-28T02:00:07;1.52;;;1.30;;
77214;SDS011;66210;53.282;9.864;2023-07-28T02:02:34;2.08;;;1.52;;
77214;SDS011;66210;53.282;9.864;2023-07-28T02:05:00;2.13;;;1.52;;
77214;SDS011;66210;53.282;9.864;2023-07-28T02:07:28;2.38;;;1.60;;
77214;SDS011;66210;53.282;9.864;2023-07-28T02:09:54;3.15;;;1.70;;
77214;SDS011;66210;53.282;9.864;2023-07-28T02:12:21;2.15;;;1.27;;
77214;SDS011;66210;53.282;9.864;2023-07-28T02:14:48;3.00;;;1.50;;
77214;SDS011;66210;53.282;9.864;2023-07-28T02:17:15;2.70;;;1.60;;
77214;SDS011;66210;53.282;9.864;2023-07-28T02:19:41;2.10;;;1.60;;
77214;SDS011;66210;53.282;9.864;2023-07-28T02:22:08;4.25;;;1.85;;
77214;SDS011;66210;53.282;9.864;2023-07-28T02:24:35;2.88;;;1.73;;
77214;SDS011;66210;53.282;9.864;2023-07-28T02:27:01;3.25;;;1.75;;
77214;SDS011;66210;53.282;9.864;2023-07-28T02:29:28;1.88;;;1.52;;
77214;SDS011;66210;53.282;9.864;2023-07-28T02:31:54;3.00;;;1.60;;
77214;SDS011;66210;53.282;9.864;2023-07-28T02:34:21;3.78;;;1.73;;
77214;SDS011;66210;53.282;9.864;2023-07-28T02:36:47;1.67;;;1.58;;
77214;SDS011;66210;53.282;9.864;2023-07-28T02:39:14;1.48;;;1.38;;
77214;SDS011;66210;53.282;9.864;2023-07-28T02:41:41;5.25;;;1.60;;
77214;SDS011;66210;53.282;9.864;2023-07-28T02:44:08;1.50;;;1.40;;
77214;SDS011;66210;53.282;9.864;2023-07-28T02:46:35;1.88;;;1.60;;
77214;SDS011;66210;53.282;9.864;2023-07-28T02:49:03;2.90;;;1.90;;
77214;SDS011;66210;53.282;9.864;2023-07-28T02:51:30;2.03;;;1.60;;
77214;SDS011;66210;53.282;9.864;2023-07-28T02:53:57;2.50;;;1.90;;
77214;SDS011;66210;53.282;9.864;2023-07-28T02:56:24;3.65;;;1.92;;
77214;SDS011;66210;53.282;9.864;2023-07-28T02:58:50;3.88;;;1.70;;
77214;SDS011;66210;53.282;9.864;2023-07-28T03:01:17;2.35;;;1.95;;
77214;SDS011;66210;53.282;9.864;2023-07-28T03:03:44;2.13;;;1.80;;
77214;SDS011;66210;53.282;9.864;2023-07-28T03:06:11;2.72;;;2.03;;
77214;SDS011;66210;53.282;9.864;2023-07-28T03:08:37;2.60;;;2.08;;
77214;SDS011;66210;53.282;9.864;2023-07-28T03:11:04;3.65;;;2.53;;
77214;SDS011;66210;53.282;9.864;2023-07-28T03:13:30;3.42;;;2.30;;
77214;SDS011;66210;53.282;9.864;2023-07-28T03:15:57;3.78;;;2.50;;
77214;SDS011;66210;53.282;9.864;2023-07-28T03:18:24;3.97;;;2.80;;
77214;SDS011;66210;53.282;9.864;2023-07-28T03:20:50;4.32;;;3.13;;
77214;SDS011;66210;53.282;9.864;2023-07-28T03:23:17;6.78;;;3.05;;
77214;SDS011;66210;53.282;9.864;2023-07-28T03:25:43;7.03;;;3.20;;
77214;SDS011;66210;53.282;9.864;2023-07-28T03:28:10;5.25;;;3.63;;
77214;SDS011;66210;53.282;9.864;2023-07-28T03:30:36;4.60;;;3.30;;
77214;SDS011;66210;53.282;9.864;2023-07-28T03:33:03;8.40;;;3.13;;
77214;SDS011;66210;53.282;9.864;2023-07-28T03:35:29;3.85;;;3.17;;
77214;SDS011;66210;53.282;9.864;2023-07-28T03:37:56;6.20;;;3.50;;
77214;SDS011;66210;53.282;9.864;2023-07-28T03:40:23;6.90;;;3.33;;
77214;SDS011;66210;53.282;9.864;2023-07-28T03:42:49;5.60;;;3.47;;
77214;SDS011;66210;53.282;9.864;2023-07-28T03:45:16;4.53;;;3.22;;
77214;SDS011;66210;53.282;9.864;2023-07-28T03:47:43;4.60;;;3.40;;
77214;SDS011;66210;53.282;9.864;2023-07-28T03:50:09;3.92;;;3.20;;
77214;SDS011;66210;53.282;9.864;2023-07-28T03:52:36;5.20;;;3.60;;
77214;SDS011;66210;53.282;9.864;2023-07-28T03:55:03;10.95;;;4.20;;
77214;SDS011;66210;53.282;9.864;2023-07-28T03:57:30;6.18;;;4.47;;
77214;SDS011;66210;53.282;9.864;2023-07-28T03:59:56;7.05;;;4.07;;
77214;SDS011;66210;53.282;9.864;2023-07-28T04:02:23;6.75;;;4.20;;
77214;SDS011;66210;53.282;9.864;2023-07-28T04:04:53;9.25;;;4.95;;
77214;SDS011;66210;53.282;9.864;2023-07-28T04:07:23;6.78;;;3.97;;
77214;SDS011;66210;53.282;9.864;2023-07-28T04:09:49;8.23;;;5.38;;
77214;SDS011;66210;53.282;9.864;2023-07-28T04:12:16;10.20;;;5.30;;
77214;SDS011;66210;53.282;9.864;2023-07-28T04:14:42;8.68;;;5.05;;
77214;SDS011;66210;53.282;9.864;2023-07-28T04:17:09;7.80;;;4.85;;
77214;SDS011;66210;53.282;9.864;2023-07-28T04:19:38;7.28;;;4.85;;
77214;SDS011;66210;53.282;9.864;2023-07-28T04:22:05;8.27;;;5.03;;
77214;SDS011;66210;53.282;9.864;2023-07-28T04:24:32;8.02;;;4.72;;
77214;SDS011;66210;53.282;9.864;2023-07-28T04:26:58;12.57;;;5.10;;
77214;SDS011;66210;53.282;9.864;2023-07-28T04:29:25;7.43;;;4.57;;
77214;SDS011;66210;53.282;9.864;2023-07-28T04:31:53;8.60;;;5.50;;
77214;SDS011;66210;53.282;9.864;2023-07-28T04:34:20;7.40;;;4.53;;
77214;SDS011;66210;53.282;9.864;2023-07-28T04:36:47;8.90;;;4.40;;
77214;SDS011;66210;53.282;9.864;2023-07-28T04:39:14;10.02;;;4.80;;
77214;SDS011;66210;53.282;9.864;2023-07-28T04:41:40;10.60;;;4.72;;
77214;SDS011;66210;53.282;9.864;2023-07-28T04:44:07;7.70;;;4.30;;
77214;SDS011;66210;53.282;9.864;2023-07-28T04:46:33;8.00;;;4.40;;
77214;SDS011;66210;53.282;9.864;2023-07-28T04:49:00;6.65;;;4.50;;
77214;SDS011;66210;53.282;9.864;2023-07-28T04:51:29;7.90;;;3.85;;
77214;SDS011;66210;53.282;9.864;2023-07-28T04:53:55;7.35;;;3.85;;
77214;SDS011;66210;53.282;9.864;2023-07-28T04:56:22;6.13;;;3.70;;
77214;SDS011;66210;53.282;9.864;2023-07-28T04:58:48;5.32;;;3.20;;
77214;SDS011;66210;53.282;9.864;2023-07-28T05:01:15;5.85;;;2.40;;
77214;SDS011;66210;53.282;9.864;2023-07-28T05:03:42;3.10;;;2.00;;
77214;SDS011;66210;53.282;9.864;2023-07-28T05:06:08;2.13;;;1.60;;
77214;SDS011;66210;53.282;9.864;2023-07-28T05:08:35;2.05;;;1.65;;
77214;SDS011;66210;53.282;9.864;2023-07-28T05:11:02;2.58;;;1.50;;
77214;SDS011;66210;53.282;9.864;2023-07-28T05:13:29;1.73;;;1.52;;
77214;SDS011;66210;53.282;9.864;2023-07-28T05:15:55;4.53;;;2.00;;
77214;SDS011;66210;53.282;9.864;2023-07-28T05:18:22;2.10;;;1.50;;
77214;SDS011;66210;53.282;9.864;2023-07-28T05:20:49;2.22;;;1.25;;
77214;SDS011;66210;53.282;9.864;2023-07-28T05:23:15;1.73;;;1.27;;
77214;SDS011;66210;53.282;9.864;2023-07-28T05:25:42;0.90;;;0.90;;
77214;SDS011;66210;53.282;9.864;2023-07-28T05:28:08;1.77;;;0.90;;
77214;SDS011;66210;53.282;9.864;2023-07-28T05:30:35;1.10;;;1.00;;
77214;SDS011;66210;53.282;9.864;2023-07-28T05:33:01;0.52;;;0.52;;
77214;SDS011;66210;53.282;9.864;2023-07-28T05:35:28;0.75;;;0.63;;
77214;SDS011;66210;53.282;9.864;2023-07-28T05:37:55;1.00;;;1.00;;
77214;SDS011;66210;53.282;9.864;2023-07-28T05:40:21;1.13;;;1.00;;
77214;SDS011;66210;53.282;9.864;2023-07-28T05:42:48;0.80;;;0.80;;
77214;SDS011;66210;53.282;9.864;2023-07-28T05:45:14;2.75;;;0.90;;
77214;SDS011;66210;53.282;9.864;2023-07-28T05:47:41;0.60;;;0.60;;
77214;SDS011;66210;53.282;9.864;2023-07-28T05:50:08;2.38;;;0.82;;
77214;SDS011;66210;53.282;9.864;2023-07-28T05:52:35;1.40;;;0.90;;
77214;SDS011;66210;53.282;9.864;2023-07-28T05:55:02;0.85;;;0.85;;
77214;SDS011;66210;53.282;9.864;2023-07-28T05:57:28;1.33;;;0.85;;
77214;SDS011;66210;53.282;9.864;2023-07-28T05:59:55;1.33;;;0.80;;
77214;SDS011;66210;53.282;9.864;2023-07-28T06:02:22;0.60;;;0.60;;
77214;SDS011;66210;53.282;9.864;2023-07-28T06:04:48;0.80;;;0.75;;
77214;SDS011;66210;53.282;9.864;2023-07-28T06:07:15;5.22;;;1.05;;
77214;SDS011;66210;53.282;9.864;2023-07-28T06:09:42;1.48;;;0.80;;
77214;SDS011;66210;53.282;9.864;2023-07-28T06:12:09;1.42;;;0.60;;
77214;SDS011;66210;53.282;9.864;2023-07-28T06:14:36;1.15;;;0.85;;
77214;SDS011;66210;53.282;9.864;2023-07-28T06:17:02;2.63;;;1.05;;
77214;SDS011;66210;53.282;9.864;2023-07-28T06:19:29;2.30;;;0.90;;
77214;SDS011;66210;53.282;9.864;2023-07-28T06:21:55;0.93;;;0.80;;
77214;SDS011;66210;53.282;9.864;2023-07-28T06:24:23;1.58;;;1.48;;
77214;SDS011;66210;53.282;9.864;2023-07-28T06:26:50;1.90;;;1.20;;
77214;SDS011;66210;53.282;9.864;2023-07-28T06:29:17;0.95;;;0.95;;
77214;SDS011;66210;53.282;9.864;2023-07-28T06:31:43;1.00;;;1.00;;
77214;SDS011;66210;53.282;9.864;2023-07-28T06:34:10;0.82;;;0.82;;
77214;SDS011;66210;53.282;9.864;2023-07-28T06:36:37;2.70;;;1.10;;
77214;SDS011;66210;53.282;9.864;2023-07-28T06:39:04;1.42;;;1.13;;
77214;SDS011;66210;53.282;9.864;2023-07-28T06:41:31;1.60;;;1.17;;
77214;SDS011;66210;53.282;9.864;2023-07-28T06:43:59;0.95;;;0.90;;
77214;SDS011;66210;53.282;9.864;2023-07-28T06:46:26;1.55;;;1.20;;
77214;SDS011;66210;53.282;9.864;2023-07-28T06:48:53;1.20;;;1.10;;
77214;SDS011;66210;53.282;9.864;2023-07-28T06:51:20;2.40;;;1.25;;
77214;SDS011;66210;53.282;9.864;2023-07-28T06:53:47;1.50;;;1.10;;
77214;SDS011;66210;53.282;9.864;2023-07-28T06:56:13;2.35;;;1.30;;
77214;SDS011;66210;53.282;9.864;2023-07-28T06:58:40;1.30;;;1.10;;
77214;SDS011;66210;53.282;9.864;2023-07-28T07:01:07;1.10;;;1.00;;
77214;SDS011;66210;53.282;9.864;2023-07-28T07:03:37;1.30;;;1.20;;
77214;SDS011;66210;53.282;9.864;2023-07-28T07:06:04;1.27;;;1.17;;
77214;SDS011;66210;53.282;9.864;2023-07-28T07:08:31;2.33;;;1.15;;
77214;SDS011;66210;53.282;9.864;2023-07-28T07:10:57;4.60;;;1.33;;
77214;SDS011;66210;53.282;9.864;2023-07-28T07:13:24;2.03;;;1.02;;
77214;SDS011;66210;53.282;9.864;2023-07-28T07:15:51;1.27;;;1.10;;
77214;SDS011;66210;53.282;9.864;2023-07-28T07:18:18;1.10;;;1.10;;
77214;SDS011;66210;53.282;9.864;2023-07-28T07:20:45;2.72;;;1.23;;
77214;SDS011;66210;53.282;9.864;2023-07-28T07:23:12;1.00;;;1.00;;
77214;SDS011;66210;53.282;9.864;2023-07-28T07:25:39;1.40;;;1.15;;
77214;SDS011;66210;53.282;9.864;2023-07-28T07:28:06;1.48;;;1.35;;
77214;SDS011;66210;53.282;9.864;2023-07-28T07:30:33;1.70;;;1.60;;
77214;SDS011;66210;53.282;9.864;2023-07-28T07:33:00;5.53;;;1.70;;
77214;SDS011;66210;53.282;9.864;2023-07-28T07:35:26;3.88;;;1.52;;
77214;SDS011;66210;53.282;9.864;2023-07-28T07:37:53;1.45;;;1.35;;
77214;SDS011;66210;53.282;9.864;2023-07-28T07:40:20;2.40;;;1.45;;
77214;SDS011;66210;53.282;9.864;2023-07-28T07:42:47;2.47;;;1.80;;
77214;SDS011;66210;53.282;9.864;2023-07-28T07:45:15;2.97;;;1.83;;
77214;SDS011;66210;53.282;9.864;2023-07-28T07:47:42;3.03;;;1.50;;
77214;SDS011;66210;53.282;9.864;2023-07-28T07:50:09;1.73;;;1.63;;
77214;SDS011;66210;53.282;9.864;2023-07-28T07:52:37;3.15;;;2.10;;
77214;SDS011;66210;53.282;9.864;2023-07-28T07:55:08;2.83;;;2.13;;
77214;SDS011;66210;53.282;9.864;2023-07-28T07:57:37;2.75;;;2.45;;
77214;SDS011;66210;53.282;9.864;2023-07-28T08:00:04;3.05;;;1.90;;
77214;SDS011;66210;53.282;9.864;2023-07-28T08:02:31;2.15;;;1.95;;
77214;SDS011;66210;53.282;9.864;2023-07-28T08:04:58;2.50;;;2.20;;
77214;SDS011;66210;53.282;9.864;2023-07-28T08:07:25;3.20;;;1.80;;
77214;SDS011;66210;53.282;9.864;2023-07-28T08:09:52;2.58;;;2.20;;
77214;SDS011;66210;53.282;9.864;2023-07-28T08:12:18;2.40;;;2.03;;
77214;SDS011;66210;53.282;9.864;2023-07-28T08:14:45;2.40;;;2.00;;
77214;SDS011;66210;53.282;9.864;2023-07-28T08:19:40;2.97;;;2.08;;
77214;SDS011;66210;53.282;9.864;2023-07-28T08:22:07;3.97;;;1.90;;
77214;SDS011;66210;53.282;9.864;2023-07-28T08:24:34;3.42;;;2.70;;
77214;SDS011;66210;53.282;9.864;2023-07-28T08:27:00;3.97;;;2.15;;
77214;SDS011;66210;53.282;9.864;2023-07-28T08:29:27;3.03;;;2.13;;
77214;SDS011;66210;53.282;9.864;2023-07-28T08:31:54;4.40;;;1.90;;
77214;SDS011;66210;53.282;9.864;2023-07-28T08:34:20;4.45;;;2.17;;
77214;SDS011;66210;53.282;9.864;2023-07-28T08:36:47;4.22;;;2.25;;
77214;SDS011;66210;53.282;9.864;2023-07-28T08:39:14;2.83;;;2.28;;
77214;SDS011;66210;53.282;9.864;2023-07-28T08:41:41;2.20;;;1.83;;
77214;SDS011;66210;53.282;9.864;2023-07-28T08:44:08;3.60;;;2.00;;
77214;SDS011;66210;53.282;9.864;2023-07-28T08:46:35;2.72;;;1.98;;
77214;SDS011;66210;53.282;9.864;2023-07-28T08:49:08;2.50;;;1.80;;
77214;SDS011;66210;53.282;9.864;2023-07-28T08:51:35;1.58;;;1.48;;
77214;SDS011;66210;53.282;9.864;2023-07-28T08:54:08;2.10;;;1.90;;
77214;SDS011;66210;53.282;9.864;2023-07-28T08:56:34;3.03;;;2.17;;
77214;SDS011;66210;53.282;9.864;2023-07-28T08:59:01;2.38;;;2.17;;
77214;SDS011;66210;53.282;9.864;2023-07-28T09:01:27;5.40;;;2.00;;
77214;SDS011;66210;53.282;9.864;2023-07-28T09:03:54;2.47;;;1.83;;
77214;SDS011;66210;53.282;9.864;2023-07-28T09:06:27;2.28;;;2.00;;
77214;SDS011;66210;53.282;9.864;2023-07-28T09:08:56;1.55;;;1.45;;
77214;SDS011;66210;53.282;9.864;2023-07-28T09:11:24;1.52;;;1.42;;
77214;SDS011;66210;53.282;9.864;2023-07-28T09:13:54;2.67;;;1.75;;
77214;SDS011;66210;53.282;9.864;2023-07-28T09:16:22;1.60;;;1.50;;
77214;SDS011;66210;53.282;9.864;2023-07-28T09:19:03;2.08;;;1.52;;
77214;SDS011;66210;53.282;9.864;2023-07-28T09:21:30;1.98;;;1.50;;
77214;SDS011;66210;53.282;9.864;2023-07-28T09:24:05;1.88;;;1.42;;
77214;SDS011;66210;53.282;9.864;2023-07-28T09:26:39;3.45;;;1.52;;
77214;SDS011;66210;53.282;9.864;2023-07-28T09:31:49;1.52;;;1.25;;
77214;SDS011;66210;53.282;9.864;2023-07-28T09:34:26;2.50;;;1.80;;
77214;SDS011;66210;53.282;9.864;2023-07-28T09:36:54;2.47;;;1.90;;
77214;SDS011;66210;53.282;9.864;2023-07-28T09:39:24;2.50;;;2.00;;
77214;SDS011;66210;53.282;9.864;2023-07-28T09:41:52;2.88;;;2.00;;
77214;SDS011;66210;53.282;9.864;2023-07-28T09:44:19;2.13;;;1.92;;
77214;SDS011;66210;53.282;9.864;2023-07-28T09:46:49;2.28;;;2.08;;
77214;SDS011;66210;53.282;9.864;2023-07-28T09:49:22;2.20;;;1.95;;
77214;SDS011;66210;53.282;9.864;2023-07-28T09:52:08;2.92;;;2.25;;
77214;SDS011;66210;53.282;9.864;2023-07-28T09:54:39;2.50;;;2.22;;
77214;SDS011;66210;53.282;9.864;2023-07-28T09:57:14;2.15;;;1.90;;
77214;SDS011;66210;53.282;9.864;2023-07-28T09:59:50;2.22;;;2.00;;
77214;SDS011;66210;53.282;9.864;2023-07-28T10:02:22;2.33;;;1.92;;
77214;SDS011;66210;53.282;9.864;2023-07-28T10:04:49;4.30;;;2.30;;
77214;SDS011;66210;53.282;9.864;2023-07-28T10:07:16;2.30;;;2.10;;
77214;SDS011;66210;53.282;9.864;2023-07-28T10:09:43;2.20;;;2.00;;
77214;SDS011;66210;53.282;9.864;2023-07-28T10:12:23;2.28;;;2.08;;
77214;SDS011;66210;53.282;9.864;2023-07-28T10:15:01;2.33;;;2.00;;
77214;SDS011;66210;53.282;9.864;2023-07-28T10:17:33;2.67;;;2.25;;
77214;SDS011;66210;53.282;9.864;2023-07-28T10:20:04;2.63;;;2.00;;
77214;SDS011;66210;53.282;9.864;2023-07-28T10:22:44;2.47;;;2.28;;
77214;SDS011;66210;53.282;9.864;2023-07-28T10:25:19;2.45;;;1.95;;
77214;SDS011;66210;53.282;9.864;2023-07-28T10:27:50;2.03;;;1.83;;
77214;SDS011;66210;53.282;9.864;2023-07-28T10:30:17;2.17;;;1.98;;
77214;SDS011;66210;53.282;9.864;2023-07-28T10:32:48;2.90;;;1.98;;
77214;SDS011;66210;53.282;9.864;2023-07-28T10:37:48;3.55;;;2.00;;
77214;SDS011;66210;53.282;9.864;2023-07-28T10:42:48;5.65;;;1.98;;
77214;SDS011;66210;53.282;9.864;2023-07-28T10:45:16;3.05;;;2.03;;
77214;SDS011;66210;53.282;9.864;2023-07-28T10:47:42;2.25;;;2.05;;
77214;SDS011;66210;53.282;9.864;2023-07-28T10:50:10;4.97;;;2.45;;
77214;SDS011;66210;53.282;9.864;2023-07-28T10:52:41;2.35;;;2.15;;
77214;SDS011;66210;53.282;9.864;2023-07-28T10:55:12;2.65;;;2.28;;
77214;SDS011;66210;53.282;9.864;2023-07-28T10:57:57;2.60;;;2.40;;
77214;SDS011;66210;53.282;9.864;2023-07-28T11:00:25;3.45;;;2.50;;
77214;SDS011;66210;53.282;9.864;2023-07-28T11:02:52;2.65;;;2.30;;
77214;SDS011;66210;53.282;9.864;2023-07-28T11:05:22;3.13;;;2.65;;
77214;SDS011;66210;53.282;9.864;2023-07-28T11:07:57;3.45;;;2.78;;
77214;SDS011;66210;53.282;9.864;2023-07-28T11:10:25;2.60;;;2.40;;
77214;SDS011;66210;53.282;9.864;2023-07-28T11:12:57;4.43;;;2.70;;
77214;SDS011;66210;53.282;9.864;2023-07-28T11:15:55;7.32;;;3.13;;
77214;SDS011;66210;53.282;9.864;2023-07-28T11:18:24;6.90;;;3.00;;
77214;SDS011;66210;53.282;9.864;2023-07-28T11:20:52;5.68;;;3.35;;
77214;SDS011;66210;53.282;9.864;2023-07-28T11:23:19;4.88;;;2.95;;
77214;SDS011;66210;53.282;9.864;2023-07-28T11:25:46;5.82;;;2.80;;
77214;SDS011;66210;53.282;9.864;2023-07-28T11:28:14;4.22;;;2.50;;
77214;SDS011;66210;53.282;9.864;2023-07-28T11:30:41;3.83;;;2.42;;
77214;SDS011;66210;53.282;9.864;2023-07-28T11:33:10;7.07;;;2.35;;
77214;SDS011;66210;53.282;9.864;2023-07-28T11:35:38;3.95;;;2.40;;
77214;SDS011;66210;53.282;9.864;2023-07-28T11:38:06;6.20;;;2.50;;
77214;SDS011;66210;53.282;9.864;2023-07-28T11:40:34;4.13;;;2.42;;
77214;SDS011;66210;53.282;9.864;2023-07-28T11:43:01;2.58;;;2.25;;
77214;SDS011;66210;53.282;9.864;2023-07-28T11:45:29;2.60;;;2.10;;
77214;SDS011;66210;53.282;9.864;2023-07-28T11:47:56;4.15;;;2.30;;
77214;SDS011;66210;53.282;9.864;2023-07-28T11:50:37;3.15;;;2.50;;
77214;SDS011;66210;53.282;9.864;2023-07-28T11:55:33;3.30;;;2.30;;
77214;SDS011;66210;53.282;9.864;2023-07-28T11:58:02;3.47;;;2.33;;
77214;SDS011;66210;53.282;9.864;2023-07-28T12:00:32;2.95;;;2.13;;
77214;SDS011;66210;53.282;9.864;2023-07-28T12:03:06;2.80;;;2.20;;
77214;SDS011;66210;53.282;9.864;2023-07-28T12:05:39;2.33;;;2.13;;
77214;SDS011;66210;53.282;9.864;2023-07-28T12:08:09;4.82;;;2.20;;
77214;SDS011;66210;53.282;9.864;2023-07-28T12:10:37;2.88;;;2.25;;
77214;SDS011;66210;53.282;9.864;2023-07-28T12:13:47;2.60;;;2.30;;
77214;SDS011;66210;53.282;9.864;2023-07-28T12:19:11;4.00;;;2.47;;
77214;SDS011;66210;53.282;9.864;2023-07-28T12:21:38;2.72;;;2.13;;
77214;SDS011;66210;53.282;9.864;2023-07-28T12:24:04;3.72;;;2.75;;
77214;SDS011;66210;53.282;9.864;2023-07-28T12:26:33;4.57;;;2.40;;
77214;SDS011;66210;53.282;9.864;2023-07-28T12:29:05;3.40;;;2.67;;
77214;SDS011;66210;53.282;9.864;2023-07-28T12:31:37;3.22;;;2.58;;
77214;SDS011;66210;53.282;9.864;2023-07-28T12:34:06;3.53;;;2.70;;
77214;SDS011;66210;53.282;9.864;2023-07-28T12:36:33;3.00;;;2.47;;
77214;SDS011;66210;53.282;9.864;2023-07-28T12:39:03;4.05;;;2.85;;
77214;SDS011;66210;53.282;9.864;2023-07-28T12:41:49;2.80;;;2.30;;
77214;SDS011;66210;53.282;9.864;2023-07-28T12:44:37;3.80;;;2.80;;
77214;SDS011;66210;53.282;9.864;2023-07-28T12:47:07;3.15;;;2.60;;
77214;SDS011;66210;53.282;9.864;2023-07-28T12:49:34;4.05;;;3.05;;
77214;SDS011;66210;53.282;9.864;2023-07-28T12:52:04;3.92;;;2.90;;
77214;SDS011;66210;53.282;9.864;2023-07-28T12:54:33;6.05;;;3.75;;
77214;SDS011;66210;53.282;9.864;2023-07-28T12:57:09;4.40;;;3.05;;
77214;SDS011;66210;53.282;9.864;2023-07-28T12:59:38;3.40;;;2.83;;
77214;SDS011;66210;53.282;9.864;2023-07-28T13:02:08;3.88;;;2.80;;
77214;SDS011;66210;53.282;9.864;2023-07-28T13:04:35;3.95;;;2.45;;
77214;SDS011;66210;53.282;9.864;2023-07-28T13:07:01;3.65;;;2.72;;
77214;SDS011;66210;53.282;9.864;2023-07-28T13:09:31;5.35;;;2.53;;
77214;SDS011;66210;53.282;9.864;2023-07-28T13:12:01;3.65;;;2.33;;
77214;SDS011;66210;53.282;9.864;2023-07-28T13:14:31;2.50;;;2.05;;
77214;SDS011;66210;53.282;9.864;2023-07-28T13:16:57;3.55;;;2.40;;
77214;SDS011;66210;53.282;9.864;2023-07-28T13:19:24;2.42;;;2.15;;
77214;SDS011;66210;53.282;9.864;2023-07-28T13:21:50;3.38;;;2.40;;
77214;SDS011;66210;53.282;9.864;2023-07-28T13:24:17;3.35;;;2.35;;
77214;SDS011;66210;53.282;9.864;2023-07-28T13:26:44;2.67;;;2.28;;
77214;SDS011;66210;53.282;9.864;2023-07-28T13:29:10;4.68;;;2.50;;
77214;SDS011;66210;53.282;9.864;2023-07-28T13:31:37;4.95;;;2.40;;
77214;SDS011;66210;53.282;9.864;2023-07-28T13:34:04;5.57;;;2.42;;
77214;SDS011;66210;53.282;9.864;2023-07-28T13:36:31;8.18;;;2.38;;
77214;SDS011;66210;53.282;9.864;2023-07-28T13:38:58;3.63;;;2.20;;
77214;SDS011;66210;53.282;9.864;2023-07-28T13:41:25;2.92;;;2.03;;
77214;SDS011;66210;53.282;9.864;2023-07-28T13:43:52;3.05;;;2.17;;
77214;SDS011;66210;53.282;9.864;2023-07-28T13:46:18;4.13;;;2.28;;
77214;SDS011;66210;53.282;9.864;2023-07-28T13:48:45;2.50;;;2.10;;
77214;SDS011;66210;53.282;9.864;2023-07-28T13:51:15;3.20;;;2.20;;
77214;SDS011;66210;53.282;9.864;2023-07-28T13:53:45;3.03;;;2.10;;
77214;SDS011;66210;53.282;9.864;2023-07-28T13:56:32;2.42;;;2.17;;
77214;SDS011;66210;53.282;9.864;2023-07-28T13:58:59;3.70;;;2.10;;
77214;SDS011;66210;53.282;9.864;2023-07-28T14:01:26;2.83;;;2.10;;
77214;SDS011;66210;53.282;9.864;2023-07-28T14:03:53;4.53;;;2.25;;
77214;SDS011;66210;53.282;9.864;2023-07-28T14:06:20;5.07;;;2.45;;
77214;SDS011;66210;53.282;9.864;2023-07-28T14:08:46;3.30;;;2.30;;
77214;SDS011;66210;53.282;9.864;2023-07-28T14:11:13;5.18;;;2.35;;
77214;SDS011;66210;53.282;9.864;2023-07-28T14:13:40;2.20;;;1.98;;
77214;SDS011;66210;53.282;9.864;2023-07-28T14:16:07;4.38;;;2.05;;
77214;SDS011;66210;53.282;9.864;2023-07-28T14:18:36;2.85;;;2.20;;
77214;SDS011;66210;53.282;9.864;2023-07-28T14:21:02;4.55;;;1.98;;
77214;SDS011;66210;53.282;9.864;2023-07-28T14:23:29;3.47;;;2.03;;
77214;SDS011;66210;53.282;9.864;2023-07-28T14:25:56;2.42;;;2.22;;
77214;SDS011;66210;53.282;9.864;2023-07-28T14:28:23;3.95;;;1.80;;
77214;SDS011;66210;53.282;9.864;2023-07-28T14:30:50;2.53;;;1.90;;
77214;SDS011;66210;53.282;9.864;2023-07-28T14:33:18;3.92;;;2.13;;
77214;SDS011;66210;53.282;9.864;2023-07-28T14:35:46;2.78;;;1.98;;
77214;SDS011;66210;53.282;9.864;2023-07-28T14:38:14;2.88;;;1.80;;
77214;SDS011;66210;53.282;9.864;2023-07-28T14:40:41;2.28;;;1.70;;
77214;SDS011;66210;53.282;9.864;2023-07-28T14:43:10;2.78;;;1.60;;
77214;SDS011;66210;53.282;9.864;2023-07-28T14:45:38;3.13;;;1.70;;
77214;SDS011;66210;53.282;9.864;2023-07-28T14:48:04;2.13;;;1.65;;
77214;SDS011;66210;53.282;9.864;2023-07-28T14:50:31;3.10;;;1.65;;
77214;SDS011;66210;53.282;9.864;2023-07-28T14:52:59;1.85;;;1.67;;
77214;SDS011;66210;53.282;9.864;2023-07-28T14:55:26;2.00;;;1.60;;
77214;SDS011;66210;53.282;9.864;2023-07-28T14:57:53;3.20;;;1.67;;
77214;SDS011;66210;53.282;9.864;2023-07-28T15:00:20;2.17;;;1.70;;
77214;SDS011;66210;53.282;9.864;2023-07-28T15:02:47;5.45;;;1.80;;
77214;SDS011;66210;53.282;9.864;2023-07-28T15:05:14;3.40;;;1.80;;
77214;SDS011;66210;53.282;9.864;2023-07-28T15:07:41;2.30;;;1.63;;
77214;SDS011;66210;53.282;9.864;2023-07-28T15:10:08;1.70;;;1.60;;
77214;SDS011;66210;53.282;9.864;2023-07-28T15:12:35;2.38;;;1.80;;
77214;SDS011;66210;53.282;9.864;2023-07-28T15:15:02;2.45;;;1.70;;
77214;SDS011;66210;53.282;9.864;2023-07-28T15:17:28;2.78;;;1.73;;